sensor_id;sensor_type;location;lat;lon;timestamp;P1;durP1;ratioP1;P2;durP2;ratioP2
75358;SDS011;64046;51.978;5.934;2023-11-22T00:02:23;11.02;;;7.10;;
75358;SDS011;64046;51.978;5.934;2023-11-22T00:04:55;12.70;;;8.05;;
75358;SDS011;64046;51.978;5.934;2023-11-22T00:07:24;13.20;;;8.57;;
75358;SDS011;64046;51.978;5.934;2023-11-22T00:10:03;11.02;;;7.75;;
75358;SDS011;64046;51.978;5.934;2023-11-22T00:12:37;12.88;;;7.18;;
75358;SDS011;64046;51.978;5.934;2023-11-22T00:15:07;11.85;;;8.43;;
75358;SDS011;64046;51.978;5.934;2023-11-22T00:17:40;10.07;;;6.80;;
75358;SDS011;64046;51.978;5.934;2023-11-22T00:20:11;14.48;;;8.55;;
75358;SDS011;64046;51.978;5.934;2023-11-22T00:22:43;11.98;;;7.15;;
75358;SDS011;64046;51.978;5.934;2023-11-22T00:25:16;13.00;;;8.25;;
75358;SDS011;64046;51.978;5.934;2023-11-22T00:27:45;12.45;;;8.95;;
75358;SDS011;64046;51.978;5.934;2023-11-22T00:30:15;14.82;;;8.77;;
75358;SDS011;64046;51.978;5.934;2023-11-22T00:32:44;13.07;;;8.30;;
75358;SDS011;64046;51.978;5.934;2023-11-22T00:35:17;13.18;;;8.63;;
75358;SDS011;64046;51.978;5.934;2023-11-22T00:37:46;11.80;;;8.35;;
75358;SDS011;64046;51.978;5.934;2023-11-22T00:40:20;14.60;;;9.68;;
75358;SDS011;64046;51.978;5.934;2023-11-22T00:42:50;11.85;;;8.00;;
75358;SDS011;64046;51.978;5.934;2023-11-22T00:45:19;10.48;;;7.47;;
75358;SDS011;64046;51.978;5.934;2023-11-22T00:47:49;15.77;;;7.13;;
75358;SDS011;64046;51.978;5.934;2023-11-22T00:50:19;11.98;;;7.43;;
75358;SDS011;64046;51.978;5.934;2023-11-22T00:52:51;15.77;;;8.07;;
75358;SDS011;64046;51.978;5.934;2023-11-22T00:55:25;12.93;;;8.65;;
75358;SDS011;64046;51.978;5.934;2023-11-22T00:57:58;13.07;;;7.32;;
75358;SDS011;64046;51.978;5.934;2023-11-22T01:00:32;11.48;;;7.65;;
75358;SDS011;64046;51.978;5.934;2023-11-22T01:03:04;11.95;;;8.02;;
75358;SDS011;64046;51.978;5.934;2023-11-22T01:05:37;11.95;;;7.53;;
75358;SDS011;64046;51.978;5.934;2023-11-22T01:08:08;12.45;;;7.70;;
75358;SDS011;64046;51.978;5.934;2023-11-22T01:10:42;11.10;;;7.72;;
75358;SDS011;64046;51.978;5.934;2023-11-22T01:13:13;18.88;;;9.18;;
75358;SDS011;64046;51.978;5.934;2023-11-22T01:15:47;10.65;;;6.93;;
75358;SDS011;64046;51.978;5.934;2023-11-22T01:18:17;10.90;;;7.22;;
75358;SDS011;64046;51.978;5.934;2023-11-22T01:20:48;11.30;;;7.18;;
75358;SDS011;64046;51.978;5.934;2023-11-22T01:23:19;9.75;;;6.75;;
75358;SDS011;64046;51.978;5.934;2023-11-22T01:25:52;15.13;;;8.35;;
75358;SDS011;64046;51.978;5.934;2023-11-22T01:28:25;12.32;;;7.30;;
75358;SDS011;64046;51.978;5.934;2023-11-22T01:31:00;10.38;;;6.25;;
75358;SDS011;64046;51.978;5.934;2023-11-22T01:33:30;9.73;;;6.45;;
75358;SDS011;64046;51.978;5.934;2023-11-22T01:36:03;9.63;;;7.05;;
75358;SDS011;64046;51.978;5.934;2023-11-22T01:38:33;11.45;;;7.07;;
75358;SDS011;64046;51.978;5.934;2023-11-22T01:41:08;9.57;;;6.57;;
75358;SDS011;64046;51.978;5.934;2023-11-22T01:43:38;8.60;;;6.30;;
75358;SDS011;64046;51.978;5.934;2023-11-22T01:46:10;10.10;;;6.25;;
75358;SDS011;64046;51.978;5.934;2023-11-22T01:48:50;10.43;;;7.00;;
75358;SDS011;64046;51.978;5.934;2023-11-22T01:51:22;11.07;;;6.25;;
75358;SDS011;64046;51.978;5.934;2023-11-22T01:53:56;10.95;;;7.45;;
75358;SDS011;64046;51.978;5.934;2023-11-22T01:56:30;9.40;;;6.10;;
75358;SDS011;64046;51.978;5.934;2023-11-22T01:59:04;8.68;;;5.82;;
75358;SDS011;64046;51.978;5.934;2023-11-22T02:01:35;10.65;;;7.22;;
75358;SDS011;64046;51.978;5.934;2023-11-22T02:04:04;9.73;;;6.07;;
75358;SDS011;64046;51.978;5.934;2023-11-22T02:06:33;11.25;;;7.28;;
75358;SDS011;64046;51.978;5.934;2023-11-22T02:09:03;9.43;;;6.72;;
75358;SDS011;64046;51.978;5.934;2023-11-22T02:11:36;8.18;;;6.32;;
75358;SDS011;64046;51.978;5.934;2023-11-22T02:14:06;9.98;;;6.07;;
75358;SDS011;64046;51.978;5.934;2023-11-22T02:16:35;10.00;;;6.38;;
75358;SDS011;64046;51.978;5.934;2023-11-22T02:19:11;8.13;;;5.90;;
75358;SDS011;64046;51.978;5.934;2023-11-22T02:21:44;10.25;;;6.68;;
75358;SDS011;64046;51.978;5.934;2023-11-22T02:24:17;10.20;;;6.15;;
75358;SDS011;64046;51.978;5.934;2023-11-22T02:26:47;9.10;;;6.53;;
75358;SDS011;64046;51.978;5.934;2023-11-22T02:29:24;9.15;;;6.07;;
75358;SDS011;64046;51.978;5.934;2023-11-22T02:31:58;12.10;;;7.80;;
75358;SDS011;64046;51.978;5.934;2023-11-22T02:34:28;12.45;;;6.72;;
75358;SDS011;64046;51.978;5.934;2023-11-22T02:36:57;11.65;;;6.40;;
75358;SDS011;64046;51.978;5.934;2023-11-22T02:39:33;9.55;;;6.20;;
75358;SDS011;64046;51.978;5.934;2023-11-22T02:42:14;11.40;;;6.97;;
75358;SDS011;64046;51.978;5.934;2023-11-22T02:44:45;11.95;;;6.80;;
75358;SDS011;64046;51.978;5.934;2023-11-22T02:47:20;11.88;;;7.40;;
75358;SDS011;64046;51.978;5.934;2023-11-22T02:49:49;12.55;;;6.97;;
75358;SDS011;64046;51.978;5.934;2023-11-22T02:52:20;13.50;;;7.55;;
75358;SDS011;64046;51.978;5.934;2023-11-22T02:54:57;9.95;;;7.15;;
75358;SDS011;64046;51.978;5.934;2023-11-22T02:57:28;11.20;;;7.43;;
75358;SDS011;64046;51.978;5.934;2023-11-22T02:59:58;12.68;;;7.53;;
75358;SDS011;64046;51.978;5.934;2023-11-22T03:02:30;12.75;;;7.10;;
75358;SDS011;64046;51.978;5.934;2023-11-22T03:05:03;13.82;;;7.65;;
75358;SDS011;64046;51.978;5.934;2023-11-22T03:07:35;11.35;;;6.82;;
75358;SDS011;64046;51.978;5.934;2023-11-22T03:10:07;10.43;;;6.90;;
75358;SDS011;64046;51.978;5.934;2023-11-22T03:12:39;12.15;;;7.75;;
75358;SDS011;64046;51.978;5.934;2023-11-22T03:15:12;9.88;;;6.57;;
75358;SDS011;64046;51.978;5.934;2023-11-22T03:17:41;10.90;;;6.90;;
75358;SDS011;64046;51.978;5.934;2023-11-22T03:20:10;10.95;;;7.45;;
75358;SDS011;64046;51.978;5.934;2023-11-22T03:22:44;12.40;;;7.03;;
75358;SDS011;64046;51.978;5.934;2023-11-22T03:25:19;12.32;;;7.30;;
75358;SDS011;64046;51.978;5.934;2023-11-22T03:27:49;10.48;;;6.85;;
75358;SDS011;64046;51.978;5.934;2023-11-22T03:30:18;15.75;;;7.20;;
75358;SDS011;64046;51.978;5.934;2023-11-22T03:32:49;10.55;;;7.22;;
75358;SDS011;64046;51.978;5.934;2023-11-22T03:35:20;12.23;;;7.30;;
75358;SDS011;64046;51.978;5.934;2023-11-22T03:37:49;10.52;;;6.90;;
75358;SDS011;64046;51.978;5.934;2023-11-22T03:40:24;11.73;;;6.90;;
75358;SDS011;64046;51.978;5.934;2023-11-22T03:42:55;13.10;;;7.90;;
75358;SDS011;64046;51.978;5.934;2023-11-22T03:45:27;13.70;;;8.23;;
75358;SDS011;64046;51.978;5.934;2023-11-22T03:47:56;13.25;;;7.03;;
75358;SDS011;64046;51.978;5.934;2023-11-22T03:50:26;14.50;;;7.63;;
75358;SDS011;64046;51.978;5.934;2023-11-22T03:52:56;11.60;;;6.90;;
75358;SDS011;64046;51.978;5.934;2023-11-22T03:55:30;12.40;;;8.02;;
75358;SDS011;64046;51.978;5.934;2023-11-22T03:57:59;13.18;;;7.95;;
75358;SDS011;64046;51.978;5.934;2023-11-22T04:00:29;11.23;;;7.25;;
75358;SDS011;64046;51.978;5.934;2023-11-22T04:02:58;10.52;;;7.32;;
75358;SDS011;64046;51.978;5.934;2023-11-22T04:05:28;12.75;;;7.22;;
75358;SDS011;64046;51.978;5.934;2023-11-22T04:07:59;11.25;;;7.32;;
75358;SDS011;64046;51.978;5.934;2023-11-22T04:10:31;11.65;;;7.50;;
75358;SDS011;64046;51.978;5.934;2023-11-22T04:13:01;12.98;;;6.97;;
75358;SDS011;64046;51.978;5.934;2023-11-22T04:15:31;8.93;;;6.43;;
75358;SDS011;64046;51.978;5.934;2023-11-22T04:18:00;13.48;;;7.90;;
75358;SDS011;64046;51.978;5.934;2023-11-22T04:20:30;12.05;;;6.93;;
75358;SDS011;64046;51.978;5.934;2023-11-22T04:23:01;11.68;;;7.20;;
75358;SDS011;64046;51.978;5.934;2023-11-22T04:25:33;11.20;;;7.40;;
75358;SDS011;64046;51.978;5.934;2023-11-22T04:28:03;13.02;;;7.40;;
75358;SDS011;64046;51.978;5.934;2023-11-22T04:30:34;12.68;;;7.30;;
75358;SDS011;64046;51.978;5.934;2023-11-22T04:33:05;14.40;;;8.07;;
75358;SDS011;64046;51.978;5.934;2023-11-22T04:35:34;12.93;;;7.40;;
75358;SDS011;64046;51.978;5.934;2023-11-22T04:38:07;11.48;;;7.53;;
75358;SDS011;64046;51.978;5.934;2023-11-22T04:40:43;12.48;;;7.32;;
75358;SDS011;64046;51.978;5.934;2023-11-22T04:43:12;13.80;;;7.40;;
75358;SDS011;64046;51.978;5.934;2023-11-22T04:45:42;14.00;;;7.93;;
75358;SDS011;64046;51.978;5.934;2023-11-22T04:48:12;12.55;;;7.85;;
75358;SDS011;64046;51.978;5.934;2023-11-22T04:50:43;11.30;;;6.60;;
75358;SDS011;64046;51.978;5.934;2023-11-22T04:53:12;17.63;;;9.45;;
75358;SDS011;64046;51.978;5.934;2023-11-22T04:55:48;17.83;;;8.43;;
75358;SDS011;64046;51.978;5.934;2023-11-22T04:58:19;13.73;;;7.20;;
75358;SDS011;64046;51.978;5.934;2023-11-22T05:00:49;16.10;;;8.02;;
75358;SDS011;64046;51.978;5.934;2023-11-22T05:03:19;13.80;;;8.80;;
75358;SDS011;64046;51.978;5.934;2023-11-22T05:05:50;15.48;;;9.18;;
75358;SDS011;64046;51.978;5.934;2023-11-22T05:08:19;13.70;;;8.68;;
75358;SDS011;64046;51.978;5.934;2023-11-22T05:10:51;12.10;;;7.40;;
75358;SDS011;64046;51.978;5.934;2023-11-22T05:13:22;12.93;;;8.35;;
75358;SDS011;64046;51.978;5.934;2023-11-22T05:15:52;13.07;;;7.65;;
75358;SDS011;64046;51.978;5.934;2023-11-22T05:18:23;12.07;;;7.22;;
75358;SDS011;64046;51.978;5.934;2023-11-22T05:20:53;11.13;;;7.53;;
75358;SDS011;64046;51.978;5.934;2023-11-22T05:23:22;14.65;;;7.82;;
75358;SDS011;64046;51.978;5.934;2023-11-22T05:25:57;10.35;;;6.50;;
75358;SDS011;64046;51.978;5.934;2023-11-22T05:28:27;12.77;;;7.82;;
75358;SDS011;64046;51.978;5.934;2023-11-22T05:30:57;10.80;;;6.47;;
75358;SDS011;64046;51.978;5.934;2023-11-22T05:33:31;15.10;;;8.90;;
75358;SDS011;64046;51.978;5.934;2023-11-22T05:36:02;14.73;;;7.30;;
75358;SDS011;64046;51.978;5.934;2023-11-22T05:38:32;12.30;;;7.43;;
75358;SDS011;64046;51.978;5.934;2023-11-22T05:41:08;11.55;;;7.60;;
75358;SDS011;64046;51.978;5.934;2023-11-22T05:43:40;12.52;;;7.40;;
75358;SDS011;64046;51.978;5.934;2023-11-22T05:46:11;15.05;;;8.63;;
75358;SDS011;64046;51.978;5.934;2023-11-22T05:48:48;15.57;;;9.20;;
75358;SDS011;64046;51.978;5.934;2023-11-22T05:51:18;16.17;;;9.50;;
75358;SDS011;64046;51.978;5.934;2023-11-22T05:53:48;16.17;;;10.13;;
75358;SDS011;64046;51.978;5.934;2023-11-22T05:56:22;15.93;;;9.20;;
75358;SDS011;64046;51.978;5.934;2023-11-22T05:58:52;16.02;;;10.00;;
75358;SDS011;64046;51.978;5.934;2023-11-22T06:01:22;16.73;;;9.07;;
75358;SDS011;64046;51.978;5.934;2023-11-22T06:03:54;13.55;;;8.93;;
75358;SDS011;64046;51.978;5.934;2023-11-22T06:06:24;15.27;;;8.98;;
75358;SDS011;64046;51.978;5.934;2023-11-22T06:08:53;13.52;;;8.70;;
75358;SDS011;64046;51.978;5.934;2023-11-22T06:11:28;15.63;;;9.02;;
75358;SDS011;64046;51.978;5.934;2023-11-22T06:14:00;13.07;;;7.50;;
75358;SDS011;64046;51.978;5.934;2023-11-22T06:16:29;15.05;;;9.50;;
75358;SDS011;64046;51.978;5.934;2023-11-22T06:19:01;14.93;;;7.82;;
75358;SDS011;64046;51.978;5.934;2023-11-22T06:21:30;11.95;;;7.88;;
75358;SDS011;64046;51.978;5.934;2023-11-22T06:24:02;15.60;;;8.80;;
75358;SDS011;64046;51.978;5.934;2023-11-22T06:26:44;16.73;;;8.70;;
75358;SDS011;64046;51.978;5.934;2023-11-22T06:29:17;14.43;;;7.40;;
75358;SDS011;64046;51.978;5.934;2023-11-22T06:31:47;12.45;;;7.75;;
75358;SDS011;64046;51.978;5.934;2023-11-22T06:34:17;14.93;;;8.75;;
75358;SDS011;64046;51.978;5.934;2023-11-22T06:36:46;13.10;;;8.15;;
75358;SDS011;64046;51.978;5.934;2023-11-22T06:39:17;13.70;;;8.85;;
75358;SDS011;64046;51.978;5.934;2023-11-22T06:41:51;17.75;;;10.13;;
75358;SDS011;64046;51.978;5.934;2023-11-22T06:44:20;14.30;;;8.65;;
75358;SDS011;64046;51.978;5.934;2023-11-22T06:46:49;19.60;;;11.30;;
75358;SDS011;64046;51.978;5.934;2023-11-22T06:49:20;16.23;;;9.32;;
75358;SDS011;64046;51.978;5.934;2023-11-22T06:51:50;15.02;;;9.48;;
75358;SDS011;64046;51.978;5.934;2023-11-22T06:54:19;14.38;;;8.75;;
75358;SDS011;64046;51.978;5.934;2023-11-22T06:56:52;14.93;;;7.63;;
75358;SDS011;64046;51.978;5.934;2023-11-22T06:59:22;15.20;;;8.50;;
75358;SDS011;64046;51.978;5.934;2023-11-22T07:01:52;11.93;;;7.85;;
75358;SDS011;64046;51.978;5.934;2023-11-22T07:04:24;12.02;;;8.00;;
75358;SDS011;64046;51.978;5.934;2023-11-22T07:06:53;14.27;;;7.97;;
75358;SDS011;64046;51.978;5.934;2023-11-22T07:09:20;13.23;;;8.40;;
75358;SDS011;64046;51.978;5.934;2023-11-22T07:11:49;15.25;;;7.75;;
75358;SDS011;64046;51.978;5.934;2023-11-22T07:14:21;16.15;;;8.95;;
75358;SDS011;64046;51.978;5.934;2023-11-22T07:16:51;14.35;;;8.35;;
75358;SDS011;64046;51.978;5.934;2023-11-22T07:19:23;16.23;;;8.00;;
75358;SDS011;64046;51.978;5.934;2023-11-22T07:21:54;12.45;;;7.78;;
75358;SDS011;64046;51.978;5.934;2023-11-22T07:24:22;11.60;;;7.75;;
75358;SDS011;64046;51.978;5.934;2023-11-22T07:26:52;15.00;;;9.10;;
75358;SDS011;64046;51.978;5.934;2023-11-22T07:29:26;13.95;;;8.75;;
75358;SDS011;64046;51.978;5.934;2023-11-22T07:31:57;16.65;;;8.02;;
75358;SDS011;64046;51.978;5.934;2023-11-22T07:34:26;14.32;;;8.27;;
75358;SDS011;64046;51.978;5.934;2023-11-22T07:36:56;13.27;;;8.35;;
75358;SDS011;64046;51.978;5.934;2023-11-22T07:39:26;14.80;;;7.68;;
75358;SDS011;64046;51.978;5.934;2023-11-22T07:41:57;15.32;;;9.60;;
75358;SDS011;64046;51.978;5.934;2023-11-22T07:44:29;20.67;;;12.07;;
75358;SDS011;64046;51.978;5.934;2023-11-22T07:47:04;22.27;;;10.95;;
75358;SDS011;64046;51.978;5.934;2023-11-22T07:49:38;17.45;;;10.65;;
75358;SDS011;64046;51.978;5.934;2023-11-22T07:52:08;18.52;;;9.95;;
75358;SDS011;64046;51.978;5.934;2023-11-22T07:54:42;20.15;;;10.45;;
75358;SDS011;64046;51.978;5.934;2023-11-22T07:57:13;13.30;;;8.77;;
75358;SDS011;64046;51.978;5.934;2023-11-22T07:59:48;15.82;;;8.45;;
75358;SDS011;64046;51.978;5.934;2023-11-22T08:02:20;14.88;;;8.93;;
75358;SDS011;64046;51.978;5.934;2023-11-22T08:04:54;14.68;;;8.68;;
75358;SDS011;64046;51.978;5.934;2023-11-22T08:07:24;13.55;;;8.40;;
75358;SDS011;64046;51.978;5.934;2023-11-22T08:09:56;13.55;;;8.00;;
75358;SDS011;64046;51.978;5.934;2023-11-22T08:12:35;16.33;;;9.05;;
75358;SDS011;64046;51.978;5.934;2023-11-22T08:15:11;18.75;;;9.48;;
75358;SDS011;64046;51.978;5.934;2023-11-22T08:17:41;14.20;;;9.30;;
75358;SDS011;64046;51.978;5.934;2023-11-22T08:20:12;14.20;;;8.43;;
75358;SDS011;64046;51.978;5.934;2023-11-22T08:22:46;15.35;;;9.40;;
75358;SDS011;64046;51.978;5.934;2023-11-22T08:25:17;13.35;;;8.55;;
75358;SDS011;64046;51.978;5.934;2023-11-22T08:27:49;12.88;;;8.25;;
75358;SDS011;64046;51.978;5.934;2023-11-22T08:30:26;16.65;;;9.50;;
75358;SDS011;64046;51.978;5.934;2023-11-22T08:32:58;13.57;;;9.23;;
75358;SDS011;64046;51.978;5.934;2023-11-22T08:35:28;14.75;;;9.32;;
75358;SDS011;64046;51.978;5.934;2023-11-22T08:38:03;14.77;;;10.07;;
75358;SDS011;64046;51.978;5.934;2023-11-22T08:40:35;13.07;;;8.63;;
75358;SDS011;64046;51.978;5.934;2023-11-22T08:43:05;16.75;;;10.07;;
75358;SDS011;64046;51.978;5.934;2023-11-22T08:45:40;13.30;;;9.30;;
75358;SDS011;64046;51.978;5.934;2023-11-22T08:48:16;14.82;;;8.55;;
75358;SDS011;64046;51.978;5.934;2023-11-22T08:50:49;15.00;;;9.45;;
75358;SDS011;64046;51.978;5.934;2023-11-22T08:53:21;15.93;;;10.02;;
75358;SDS011;64046;51.978;5.934;2023-11-22T08:55:53;16.63;;;10.07;;
75358;SDS011;64046;51.978;5.934;2023-11-22T08:58:25;15.30;;;10.27;;
75358;SDS011;64046;51.978;5.934;2023-11-22T09:00:59;15.63;;;9.05;;
75358;SDS011;64046;51.978;5.934;2023-11-22T09:03:29;18.17;;;11.15;;
75358;SDS011;64046;51.978;5.934;2023-11-22T09:06:04;18.23;;;10.18;;
75358;SDS011;64046;51.978;5.934;2023-11-22T09:08:38;15.93;;;9.85;;
75358;SDS011;64046;51.978;5.934;2023-11-22T09:11:08;17.60;;;11.95;;
75358;SDS011;64046;51.978;5.934;2023-11-22T09:13:37;15.23;;;10.18;;
75358;SDS011;64046;51.978;5.934;2023-11-22T09:16:11;20.10;;;10.95;;
75358;SDS011;64046;51.978;5.934;2023-11-22T09:18:42;15.80;;;9.98;;
75358;SDS011;64046;51.978;5.934;2023-11-22T09:21:16;13.55;;;9.63;;
75358;SDS011;64046;51.978;5.934;2023-11-22T09:23:47;18.17;;;9.93;;
75358;SDS011;64046;51.978;5.934;2023-11-22T09:26:19;16.95;;;10.77;;
75358;SDS011;64046;51.978;5.934;2023-11-22T09:28:49;15.27;;;9.95;;
75358;SDS011;64046;51.978;5.934;2023-11-22T09:31:38;14.70;;;9.38;;
75358;SDS011;64046;51.978;5.934;2023-11-22T09:34:14;16.10;;;9.10;;
75358;SDS011;64046;51.978;5.934;2023-11-22T09:36:47;18.45;;;9.88;;
75358;SDS011;64046;51.978;5.934;2023-11-22T09:39:21;13.10;;;8.80;;
75358;SDS011;64046;51.978;5.934;2023-11-22T09:41:59;18.15;;;10.32;;
75358;SDS011;64046;51.978;5.934;2023-11-22T09:44:31;16.30;;;10.60;;
75358;SDS011;64046;51.978;5.934;2023-11-22T09:47:08;17.55;;;10.73;;
75358;SDS011;64046;51.978;5.934;2023-11-22T09:49:39;17.88;;;9.95;;
75358;SDS011;64046;51.978;5.934;2023-11-22T09:52:10;18.02;;;10.07;;
75358;SDS011;64046;51.978;5.934;2023-11-22T09:54:48;19.38;;;11.25;;
75358;SDS011;64046;51.978;5.934;2023-11-22T09:57:19;15.85;;;9.32;;
75358;SDS011;64046;51.978;5.934;2023-11-22T09:59:55;14.98;;;9.50;;
75358;SDS011;64046;51.978;5.934;2023-11-22T10:02:50;16.55;;;10.45;;
75358;SDS011;64046;51.978;5.934;2023-11-22T10:05:19;19.15;;;11.40;;
75358;SDS011;64046;51.978;5.934;2023-11-22T10:07:52;19.85;;;10.88;;
75358;SDS011;64046;51.978;5.934;2023-11-22T10:10:22;16.83;;;10.38;;
75358;SDS011;64046;51.978;5.934;2023-11-22T10:13:00;15.85;;;9.80;;
75358;SDS011;64046;51.978;5.934;2023-11-22T10:15:30;15.10;;;9.98;;
75358;SDS011;64046;51.978;5.934;2023-11-22T10:18:02;17.40;;;10.27;;
75358;SDS011;64046;51.978;5.934;2023-11-22T10:20:37;16.80;;;10.55;;
75358;SDS011;64046;51.978;5.934;2023-11-22T10:23:15;17.77;;;10.77;;
75358;SDS011;64046;51.978;5.934;2023-11-22T10:25:56;15.48;;;10.50;;
75358;SDS011;64046;51.978;5.934;2023-11-22T10:28:31;14.52;;;9.50;;
75358;SDS011;64046;51.978;5.934;2023-11-22T10:31:04;18.00;;;10.60;;
75358;SDS011;64046;51.978;5.934;2023-11-22T10:33:41;21.73;;;9.60;;
75358;SDS011;64046;51.978;5.934;2023-11-22T10:36:13;14.68;;;9.20;;
75358;SDS011;64046;51.978;5.934;2023-11-22T10:38:48;13.60;;;8.20;;
75358;SDS011;64046;51.978;5.934;2023-11-22T10:41:19;14.13;;;8.68;;
75358;SDS011;64046;51.978;5.934;2023-11-22T10:43:51;15.20;;;9.52;;
75358;SDS011;64046;51.978;5.934;2023-11-22T10:46:24;14.85;;;9.60;;
75358;SDS011;64046;51.978;5.934;2023-11-22T10:49:04;12.90;;;7.75;;
75358;SDS011;64046;51.978;5.934;2023-11-22T10:51:34;15.07;;;9.75;;
75358;SDS011;64046;51.978;5.934;2023-11-22T10:54:08;12.43;;;8.43;;
75358;SDS011;64046;51.978;5.934;2023-11-22T10:56:49;19.65;;;8.48;;
75358;SDS011;64046;51.978;5.934;2023-11-22T10:59:25;15.32;;;8.45;;
75358;SDS011;64046;51.978;5.934;2023-11-22T11:01:56;14.40;;;8.32;;
75358;SDS011;64046;51.978;5.934;2023-11-22T11:04:34;16.85;;;9.50;;
75358;SDS011;64046;51.978;5.934;2023-11-22T11:07:12;13.75;;;8.77;;
75358;SDS011;64046;51.978;5.934;2023-11-22T11:09:48;15.93;;;9.02;;
75358;SDS011;64046;51.978;5.934;2023-11-22T11:12:19;15.55;;;9.27;;
75358;SDS011;64046;51.978;5.934;2023-11-22T11:14:51;16.88;;;9.32;;
75358;SDS011;64046;51.978;5.934;2023-11-22T11:17:21;13.00;;;8.50;;
75358;SDS011;64046;51.978;5.934;2023-11-22T11:19:57;19.83;;;9.13;;
75358;SDS011;64046;51.978;5.934;2023-11-22T11:22:27;14.60;;;8.88;;
75358;SDS011;64046;51.978;5.934;2023-11-22T11:25:00;12.63;;;8.05;;
75358;SDS011;64046;51.978;5.934;2023-11-22T11:27:32;16.77;;;9.27;;
75358;SDS011;64046;51.978;5.934;2023-11-22T11:33:04;16.13;;;10.48;;
75358;SDS011;64046;51.978;5.934;2023-11-22T11:35:41;13.15;;;8.27;;
75358;SDS011;64046;51.978;5.934;2023-11-22T11:38:14;16.05;;;9.30;;
75358;SDS011;64046;51.978;5.934;2023-11-22T11:40:45;17.88;;;11.20;;
75358;SDS011;64046;51.978;5.934;2023-11-22T11:43:18;16.75;;;10.18;;
75358;SDS011;64046;51.978;5.934;2023-11-22T11:45:52;16.02;;;10.15;;
75358;SDS011;64046;51.978;5.934;2023-11-22T11:48:23;17.98;;;9.88;;
75358;SDS011;64046;51.978;5.934;2023-11-22T11:51:00;19.30;;;11.48;;
75358;SDS011;64046;51.978;5.934;2023-11-22T11:53:32;20.08;;;12.35;;
75358;SDS011;64046;51.978;5.934;2023-11-22T11:56:04;19.17;;;12.95;;
75358;SDS011;64046;51.978;5.934;2023-11-22T11:58:35;19.65;;;12.65;;
75358;SDS011;64046;51.978;5.934;2023-11-22T12:01:05;19.33;;;12.32;;
75358;SDS011;64046;51.978;5.934;2023-11-22T12:03:36;20.83;;;12.70;;
75358;SDS011;64046;51.978;5.934;2023-11-22T12:06:10;16.20;;;10.25;;
75358;SDS011;64046;51.978;5.934;2023-11-22T12:08:42;21.27;;;12.98;;
75358;SDS011;64046;51.978;5.934;2023-11-22T12:11:15;20.88;;;11.80;;
75358;SDS011;64046;51.978;5.934;2023-11-22T12:13:45;19.20;;;11.57;;
75358;SDS011;64046;51.978;5.934;2023-11-22T12:16:22;22.27;;;12.43;;
75358;SDS011;64046;51.978;5.934;2023-11-22T12:18:53;18.15;;;10.60;;
75358;SDS011;64046;51.978;5.934;2023-11-22T12:21:29;16.77;;;9.77;;
75358;SDS011;64046;51.978;5.934;2023-11-22T12:23:59;17.20;;;10.45;;
75358;SDS011;64046;51.978;5.934;2023-11-22T12:26:33;18.23;;;10.88;;
75358;SDS011;64046;51.978;5.934;2023-11-22T12:29:16;15.63;;;9.48;;
75358;SDS011;64046;51.978;5.934;2023-11-22T12:31:50;18.45;;;10.70;;
75358;SDS011;64046;51.978;5.934;2023-11-22T12:34:27;20.08;;;11.45;;
75358;SDS011;64046;51.978;5.934;2023-11-22T12:37:02;18.88;;;11.05;;
75358;SDS011;64046;51.978;5.934;2023-11-22T12:39:36;16.67;;;10.52;;
75358;SDS011;64046;51.978;5.934;2023-11-22T12:42:14;17.98;;;10.25;;
75358;SDS011;64046;51.978;5.934;2023-11-22T12:44:47;22.73;;;12.02;;
75358;SDS011;64046;51.978;5.934;2023-11-22T12:47:30;21.13;;;12.10;;
75358;SDS011;64046;51.978;5.934;2023-11-22T12:50:03;26.75;;;14.10;;
75358;SDS011;64046;51.978;5.934;2023-11-22T12:52:37;23.05;;;13.40;;
75358;SDS011;64046;51.978;5.934;2023-11-22T12:55:14;22.05;;;13.02;;
75358;SDS011;64046;51.978;5.934;2023-11-22T12:57:47;19.27;;;11.70;;
75358;SDS011;64046;51.978;5.934;2023-11-22T13:00:33;17.60;;;10.05;;
75358;SDS011;64046;51.978;5.934;2023-11-22T13:03:05;20.48;;;11.77;;
75358;SDS011;64046;51.978;5.934;2023-11-22T13:05:36;19.58;;;11.63;;
75358;SDS011;64046;51.978;5.934;2023-11-22T13:08:08;22.75;;;12.13;;
75358;SDS011;64046;51.978;5.934;2023-11-22T13:10:42;20.60;;;12.30;;
75358;SDS011;64046;51.978;5.934;2023-11-22T13:13:19;19.30;;;11.32;;
75358;SDS011;64046;51.978;5.934;2023-11-22T13:15:49;17.65;;;10.93;;
75358;SDS011;64046;51.978;5.934;2023-11-22T13:18:21;22.10;;;11.32;;
75358;SDS011;64046;51.978;5.934;2023-11-22T13:20:52;23.10;;;12.40;;
75358;SDS011;64046;51.978;5.934;2023-11-22T13:23:25;20.58;;;11.25;;
75358;SDS011;64046;51.978;5.934;2023-11-22T13:25:57;20.13;;;11.93;;
75358;SDS011;64046;51.978;5.934;2023-11-22T13:28:29;20.75;;;11.35;;
75358;SDS011;64046;51.978;5.934;2023-11-22T13:30:58;19.85;;;11.27;;
75358;SDS011;64046;51.978;5.934;2023-11-22T13:33:28;20.52;;;11.43;;
75358;SDS011;64046;51.978;5.934;2023-11-22T13:36:10;20.67;;;11.85;;
75358;SDS011;64046;51.978;5.934;2023-11-22T13:38:45;21.58;;;12.15;;
75358;SDS011;64046;51.978;5.934;2023-11-22T13:41:18;20.48;;;11.38;;
75358;SDS011;64046;51.978;5.934;2023-11-22T13:43:56;18.23;;;10.75;;
75358;SDS011;64046;51.978;5.934;2023-11-22T13:46:28;23.65;;;12.70;;
75358;SDS011;64046;51.978;5.934;2023-11-22T13:48:59;20.70;;;11.65;;
75358;SDS011;64046;51.978;5.934;2023-11-22T13:51:30;20.30;;;11.52;;
75358;SDS011;64046;51.978;5.934;2023-11-22T13:54:04;29.33;;;14.77;;
75358;SDS011;64046;51.978;5.934;2023-11-22T13:56:39;24.33;;;13.48;;
75358;SDS011;64046;51.978;5.934;2023-11-22T13:59:11;21.33;;;12.63;;
75358;SDS011;64046;51.978;5.934;2023-11-22T14:01:42;23.70;;;12.98;;
75358;SDS011;64046;51.978;5.934;2023-11-22T14:04:13;29.75;;;15.93;;
75358;SDS011;64046;51.978;5.934;2023-11-22T14:06:42;28.33;;;15.18;;
75358;SDS011;64046;51.978;5.934;2023-11-22T14:09:19;28.88;;;15.07;;
75358;SDS011;64046;51.978;5.934;2023-11-22T14:11:51;24.58;;;14.20;;
75358;SDS011;64046;51.978;5.934;2023-11-22T14:14:23;35.83;;;15.82;;
75358;SDS011;64046;51.978;5.934;2023-11-22T14:16:53;33.30;;;17.20;;
75358;SDS011;64046;51.978;5.934;2023-11-22T14:19:22;28.10;;;14.20;;
75358;SDS011;64046;51.978;5.934;2023-11-22T14:21:53;32.63;;;18.10;;
75358;SDS011;64046;51.978;5.934;2023-11-22T14:24:25;33.45;;;17.67;;
75358;SDS011;64046;51.978;5.934;2023-11-22T14:26:56;33.40;;;16.80;;
75358;SDS011;64046;51.978;5.934;2023-11-22T14:29:29;33.42;;;17.10;;
75358;SDS011;64046;51.978;5.934;2023-11-22T14:32:02;33.20;;;17.35;;
75358;SDS011;64046;51.978;5.934;2023-11-22T14:34:33;31.58;;;15.85;;
75358;SDS011;64046;51.978;5.934;2023-11-22T14:37:04;39.65;;;19.65;;
75358;SDS011;64046;51.978;5.934;2023-11-22T14:39:38;34.75;;;17.55;;
75358;SDS011;64046;51.978;5.934;2023-11-22T14:42:17;34.90;;;16.73;;
75358;SDS011;64046;51.978;5.934;2023-11-22T14:44:55;41.53;;;20.35;;
75358;SDS011;64046;51.978;5.934;2023-11-22T14:47:25;32.97;;;16.10;;
75358;SDS011;64046;51.978;5.934;2023-11-22T14:50:02;33.08;;;17.80;;
75358;SDS011;64046;51.978;5.934;2023-11-22T14:52:39;30.88;;;16.05;;
75358;SDS011;64046;51.978;5.934;2023-11-22T14:55:13;35.30;;;17.38;;
75358;SDS011;64046;51.978;5.934;2023-11-22T14:57:45;35.53;;;16.75;;
75358;SDS011;64046;51.978;5.934;2023-11-22T15:00:17;36.15;;;18.45;;
75358;SDS011;64046;51.978;5.934;2023-11-22T15:02:46;36.97;;;17.90;;
75358;SDS011;64046;51.978;5.934;2023-11-22T15:05:21;34.22;;;16.65;;